sensor_id;sensor_type;location;lat;lon;timestamp;temperature;humidity
41838;DHT22;27511;52.042;5.178;2024-02-23T00:01:59;7.80;1.00
41838;DHT22;27511;52.042;5.178;2024-02-23T00:04:25;7.70;1.00
41838;DHT22;27511;52.042;5.178;2024-02-23T00:06:51;7.80;1.00
41838;DHT22;27511;52.042;5.178;2024-02-23T00:09:17;8.00;1.00
41838;DHT22;27511;52.042;5.178;2024-02-23T00:11:42;8.10;1.00
41838;DHT22;27511;52.042;5.178;2024-02-23T00:14:13;8.20;1.00
41838;DHT22;27511;52.042;5.178;2024-02-23T00:16:39;8.30;1.00
41838;DHT22;27511;52.042;5.178;2024-02-23T00:19:06;8.40;1.00
41838;DHT22;27511;52.042;5.178;2024-02-23T00:21:32;8.70;1.00
41838;DHT22;27511;52.042;5.178;2024-02-23T00:23:57;8.70;1.00
41838;DHT22;27511;52.042;5.178;2024-02-23T00:26:23;8.60;1.00
41838;DHT22;27511;52.042;5.178;2024-02-23T00:28:49;8.60;1.00
41838;DHT22;27511;52.042;5.178;2024-02-23T00:31:14;8.50;1.00
41838;DHT22;27511;52.042;5.178;2024-02-23T00:33:49;8.70;1.00
41838;DHT22;27511;52.042;5.178;2024-02-23T00:36:14;8.90;1.00
41838;DHT22;27511;52.042;5.178;2024-02-23T00:38:40;8.80;1.00
41838;DHT22;27511;52.042;5.178;2024-02-23T00:41:06;8.60;1.00
41838;DHT22;27511;52.042;5.178;2024-02-23T00:43:41;8.30;1.00
41838;DHT22;27511;52.042;5.178;2024-02-23T00:46:08;8.00;1.00
41838;DHT22;27511;52.042;5.178;2024-02-23T00:48:37;7.90;1.00
41838;DHT22;27511;52.042;5.178;2024-02-23T00:51:03;7.80;1.00
41838;DHT22;27511;52.042;5.178;2024-02-23T00:53:30;7.70;1.00
41838;DHT22;27511;52.042;5.178;2024-02-23T00:55:56;7.80;1.00
41838;DHT22;27511;52.042;5.178;2024-02-23T00:58:21;7.80;1.00
41838;DHT22;27511;52.042;5.178;2024-02-23T01:00:47;7.70;1.00
41838;DHT22;27511;52.042;5.178;2024-02-23T01:03:12;7.60;1.00
41838;DHT22;27511;52.042;5.178;2024-02-23T01:05:38;7.20;1.00
41838;DHT22;27511;52.042;5.178;2024-02-23T01:08:05;6.60;1.00
41838;DHT22;27511;52.042;5.178;2024-02-23T01:10:30;6.10;1.00
41838;DHT22;27511;52.042;5.178;2024-02-23T01:12:56;6.10;1.00
41838;DHT22;27511;52.042;5.178;2024-02-23T01:15:22;6.10;1.00
41838;DHT22;27511;52.042;5.178;2024-02-23T01:17:48;6.40;1.00
41838;DHT22;27511;52.042;5.178;2024-02-23T01:20:13;6.60;1.00
41838;DHT22;27511;52.042;5.178;2024-02-23T01:22:39;6.70;1.00
41838;DHT22;27511;52.042;5.178;2024-02-23T01:25:05;7.00;1.00
41838;DHT22;27511;52.042;5.178;2024-02-23T01:27:31;7.30;1.00
41838;DHT22;27511;52.042;5.178;2024-02-23T01:29:57;7.50;1.00
41838;DHT22;27511;52.042;5.178;2024-02-23T01:32:22;7.80;1.00
41838;DHT22;27511;52.042;5.178;2024-02-23T01:34:48;7.90;1.00
41838;DHT22;27511;52.042;5.178;2024-02-23T01:37:14;7.90;1.00
41838;DHT22;27511;52.042;5.178;2024-02-23T01:39:39;8.00;1.00
41838;DHT22;27511;52.042;5.178;2024-02-23T01:42:05;7.80;1.00
41838;DHT22;27511;52.042;5.178;2024-02-23T01:44:31;8.00;1.00
41838;DHT22;27511;52.042;5.178;2024-02-23T01:46:57;8.00;1.00
41838;DHT22;27511;52.042;5.178;2024-02-23T01:49:22;8.00;1.00
41838;DHT22;27511;52.042;5.178;2024-02-23T01:51:57;8.00;1.00
41838;DHT22;27511;52.042;5.178;2024-02-23T01:54:24;7.80;1.00
41838;DHT22;27511;52.042;5.178;2024-02-23T01:56:51;7.70;1.00
41838;DHT22;27511;52.042;5.178;2024-02-23T01:59:16;7.90;1.00
41838;DHT22;27511;52.042;5.178;2024-02-23T02:01:43;7.80;1.00
41838;DHT22;27511;52.042;5.178;2024-02-23T02:04:08;8.00;1.00
41838;DHT22;27511;52.042;5.178;2024-02-23T02:06:34;8.00;1.00
41838;DHT22;27511;52.042;5.178;2024-02-23T02:09:00;8.00;1.00
41838;DHT22;27511;52.042;5.178;2024-02-23T02:11:25;8.10;1.00
41838;DHT22;27511;52.042;5.178;2024-02-23T02:13:51;8.10;1.00
41838;DHT22;27511;52.042;5.178;2024-02-23T02:16:16;8.30;1.00
41838;DHT22;27511;52.042;5.178;2024-02-23T02:18:42;8.30;1.00
41838;DHT22;27511;52.042;5.178;2024-02-23T02:21:11;8.30;1.00
41838;DHT22;27511;52.042;5.178;2024-02-23T02:23:36;8.20;1.00
41838;DHT22;27511;52.042;5.178;2024-02-23T02:26:03;8.10;1.00
41838;DHT22;27511;52.042;5.178;2024-02-23T02:28:29;8.20;1.00
41838;DHT22;27511;52.042;5.178;2024-02-23T02:30:55;8.10;1.00
41838;DHT22;27511;52.042;5.178;2024-02-23T02:33:22;8.20;1.00
41838;DHT22;27511;52.042;5.178;2024-02-23T02:35:48;8.00;1.00
41838;DHT22;27511;52.042;5.178;2024-02-23T02:38:15;8.20;1.00
41838;DHT22;27511;52.042;5.178;2024-02-23T02:40:40;8.10;1.00
41838;DHT22;27511;52.042;5.178;2024-02-23T02:43:06;8.00;1.00
41838;DHT22;27511;52.042;5.178;2024-02-23T02:45:32;8.00;1.00
41838;DHT22;27511;52.042;5.178;2024-02-23T02:48:00;8.00;1.00
41838;DHT22;27511;52.042;5.178;2024-02-23T02:50:26;8.00;1.00
41838;DHT22;27511;52.042;5.178;2024-02-23T02:52:52;8.10;1.00
41838;DHT22;27511;52.042;5.178;2024-02-23T02:55:17;8.00;1.00
41838;DHT22;27511;52.042;5.178;2024-02-23T02:57:44;7.90;1.00
41838;DHT22;27511;52.042;5.178;2024-02-23T03:00:10;8.00;1.00
41838;DHT22;27511;52.042;5.178;2024-02-23T03:02:36;7.70;1.00
41838;DHT22;27511;52.042;5.178;2024-02-23T03:05:02;7.60;1.00
41838;DHT22;27511;52.042;5.178;2024-02-23T03:07:28;7.70;1.00
41838;DHT22;27511;52.042;5.178;2024-02-23T03:09:53;7.80;1.00
41838;DHT22;27511;52.042;5.178;2024-02-23T03:12:19;7.70;1.00
41838;DHT22;27511;52.042;5.178;2024-02-23T03:14:45;7.80;1.00
41838;DHT22;27511;52.042;5.178;2024-02-23T03:17:10;7.60;1.00
41838;DHT22;27511;52.042;5.178;2024-02-23T03:19:36;7.70;1.00
41838;DHT22;27511;52.042;5.178;2024-02-23T03:22:02;7.50;1.00
41838;DHT22;27511;52.042;5.178;2024-02-23T03:24:28;7.60;1.00
41838;DHT22;27511;52.042;5.178;2024-02-23T03:26:53;7.60;1.00
41838;DHT22;27511;52.042;5.178;2024-02-23T03:29:19;7.50;1.00
41838;DHT22;27511;52.042;5.178;2024-02-23T03:31:45;7.40;1.00
41838;DHT22;27511;52.042;5.178;2024-02-23T03:34:11;7.30;1.00
41838;DHT22;27511;52.042;5.178;2024-02-23T03:36:38;7.50;1.00
41838;DHT22;27511;52.042;5.178;2024-02-23T03:39:04;7.60;1.00
41838;DHT22;27511;52.042;5.178;2024-02-23T03:41:29;7.50;1.00
41838;DHT22;27511;52.042;5.178;2024-02-23T03:43:55;7.60;1.00
41838;DHT22;27511;52.042;5.178;2024-02-23T03:46:21;7.50;1.00
41838;DHT22;27511;52.042;5.178;2024-02-23T03:48:47;7.60;1.00
41838;DHT22;27511;52.042;5.178;2024-02-23T03:51:13;7.60;1.00
41838;DHT22;27511;52.042;5.178;2024-02-23T03:53:38;7.80;1.00
41838;DHT22;27511;52.042;5.178;2024-02-23T03:56:04;7.80;1.00
41838;DHT22;27511;52.042;5.178;2024-02-23T03:58:29;7.80;1.00
41838;DHT22;27511;52.042;5.178;2024-02-23T04:00:55;8.00;1.00
41838;DHT22;27511;52.042;5.178;2024-02-23T04:03:21;8.00;1.00
41838;DHT22;27511;52.042;5.178;2024-02-23T04:05:46;7.90;1.00
41838;DHT22;27511;52.042;5.178;2024-02-23T04:08:12;7.60;1.00
41838;DHT22;27511;52.042;5.178;2024-02-23T04:10:37;7.60;1.00
41838;DHT22;27511;52.042;5.178;2024-02-23T04:13:03;7.60;1.00
41838;DHT22;27511;52.042;5.178;2024-02-23T04:15:29;7.80;1.00
41838;DHT22;27511;52.042;5.178;2024-02-23T04:17:54;7.80;1.00
41838;DHT22;27511;52.042;5.178;2024-02-23T04:20:20;7.80;1.00
41838;DHT22;27511;52.042;5.178;2024-02-23T04:22:46;7.60;1.00
41838;DHT22;27511;52.042;5.178;2024-02-23T04:25:12;7.50;1.00
41838;DHT22;27511;52.042;5.178;2024-02-23T04:27:37;7.60;1.00
41838;DHT22;27511;52.042;5.178;2024-02-23T04:30:03;7.50;1.00
41838;DHT22;27511;52.042;5.178;2024-02-23T04:32:29;7.30;1.00
41838;DHT22;27511;52.042;5.178;2024-02-23T04:34:55;7.30;1.00
41838;DHT22;27511;52.042;5.178;2024-02-23T04:37:21;7.50;1.00
41838;DHT22;27511;52.042;5.178;2024-02-23T04:39:46;7.50;1.00
41838;DHT22;27511;52.042;5.178;2024-02-23T04:42:12;7.70;1.00
41838;DHT22;27511;52.042;5.178;2024-02-23T04:44:38;7.90;1.00
41838;DHT22;27511;52.042;5.178;2024-02-23T04:47:03;7.90;1.00
41838;DHT22;27511;52.042;5.178;2024-02-23T04:49:29;7.80;1.00
41838;DHT22;27511;52.042;5.178;2024-02-23T04:51:54;7.70;1.00
41838;DHT22;27511;52.042;5.178;2024-02-23T04:54:20;7.80;1.00
41838;DHT22;27511;52.042;5.178;2024-02-23T04:56:46;7.70;1.00
41838;DHT22;27511;52.042;5.178;2024-02-23T04:59:13;7.80;1.00
41838;DHT22;27511;52.042;5.178;2024-02-23T05:01:38;8.00;1.00
41838;DHT22;27511;52.042;5.178;2024-02-23T05:04:04;8.10;1.00
41838;DHT22;27511;52.042;5.178;2024-02-23T05:06:30;8.00;1.00
41838;DHT22;27511;52.042;5.178;2024-02-23T05:08:56;8.00;1.00
41838;DHT22;27511;52.042;5.178;2024-02-23T05:11:21;7.80;1.00
41838;DHT22;27511;52.042;5.178;2024-02-23T05:13:47;7.70;1.00
41838;DHT22;27511;52.042;5.178;2024-02-23T05:16:16;7.80;1.00
41838;DHT22;27511;52.042;5.178;2024-02-23T05:18:43;7.80;1.00
41838;DHT22;27511;52.042;5.178;2024-02-23T05:21:09;7.90;1.00
41838;DHT22;27511;52.042;5.178;2024-02-23T05:23:35;7.70;1.00
41838;DHT22;27511;52.042;5.178;2024-02-23T05:26:01;7.60;1.00
41838;DHT22;27511;52.042;5.178;2024-02-23T05:28:26;7.70;1.00
41838;DHT22;27511;52.042;5.178;2024-02-23T05:30:54;7.80;1.00
41838;DHT22;27511;52.042;5.178;2024-02-23T05:33:19;8.00;1.00
41838;DHT22;27511;52.042;5.178;2024-02-23T05:35:46;8.00;1.00
41838;DHT22;27511;52.042;5.178;2024-02-23T05:38:14;8.20;1.00
41838;DHT22;27511;52.042;5.178;2024-02-23T05:40:40;8.30;1.00
41838;DHT22;27511;52.042;5.178;2024-02-23T05:43:05;8.40;99.90
41838;DHT22;27511;52.042;5.178;2024-02-23T05:45:31;8.60;99.90
41838;DHT22;27511;52.042;5.178;2024-02-23T05:47:57;8.70;99.90
41838;DHT22;27511;52.042;5.178;2024-02-23T05:50:23;8.60;99.90
41838;DHT22;27511;52.042;5.178;2024-02-23T05:52:48;8.40;99.90
41838;DHT22;27511;52.042;5.178;2024-02-23T05:55:14;8.50;99.90
41838;DHT22;27511;52.042;5.178;2024-02-23T05:57:40;8.70;99.90
41838;DHT22;27511;52.042;5.178;2024-02-23T06:00:06;8.70;99.90
41838;DHT22;27511;52.042;5.178;2024-02-23T06:02:33;8.60;99.90
41838;DHT22;27511;52.042;5.178;2024-02-23T06:04:58;8.50;99.90
41838;DHT22;27511;52.042;5.178;2024-02-23T06:07:24;8.50;99.90
41838;DHT22;27511;52.042;5.178;2024-02-23T06:09:57;8.40;99.90
41838;DHT22;27511;52.042;5.178;2024-02-23T06:12:23;8.60;99.90
41838;DHT22;27511;52.042;5.178;2024-02-23T06:14:51;8.60;99.90
41838;DHT22;27511;52.042;5.178;2024-02-23T06:17:16;8.40;99.90
41838;DHT22;27511;52.042;5.178;2024-02-23T06:19:42;8.40;99.90
41838;DHT22;27511;52.042;5.178;2024-02-23T06:22:08;8.40;99.90
41838;DHT22;27511;52.042;5.178;2024-02-23T06:24:36;8.10;99.90
41838;DHT22;27511;52.042;5.178;2024-02-23T06:27:02;8.30;99.90
41838;DHT22;27511;52.042;5.178;2024-02-23T06:29:29;8.30;99.90
41838;DHT22;27511;52.042;5.178;2024-02-23T06:31:55;8.30;99.90
41838;DHT22;27511;52.042;5.178;2024-02-23T06:34:21;8.30;99.90
41838;DHT22;27511;52.042;5.178;2024-02-23T06:36:47;8.10;99.90
41838;DHT22;27511;52.042;5.178;2024-02-23T06:39:13;8.10;99.90
41838;DHT22;27511;52.042;5.178;2024-02-23T06:41:38;8.20;99.90
41838;DHT22;27511;52.042;5.178;2024-02-23T06:44:04;8.20;99.90
41838;DHT22;27511;52.042;5.178;2024-02-23T06:46:30;8.30;99.90
41838;DHT22;27511;52.042;5.178;2024-02-23T06:48:55;8.50;99.90
41838;DHT22;27511;52.042;5.178;2024-02-23T06:51:21;8.50;99.90
41838;DHT22;27511;52.042;5.178;2024-02-23T06:53:47;8.60;99.90
41838;DHT22;27511;52.042;5.178;2024-02-23T06:56:13;8.60;99.90
41838;DHT22;27511;52.042;5.178;2024-02-23T06:58:38;8.50;99.90
41838;DHT22;27511;52.042;5.178;2024-02-23T07:01:04;8.50;99.90
41838;DHT22;27511;52.042;5.178;2024-02-23T07:03:32;8.20;99.90
41838;DHT22;27511;52.042;5.178;2024-02-23T07:05:58;8.00;99.90
41838;DHT22;27511;52.042;5.178;2024-02-23T07:08:24;8.00;99.90
41838;DHT22;27511;52.042;5.178;2024-02-23T07:10:49;8.20;99.90
41838;DHT22;27511;52.042;5.178;2024-02-23T07:13:15;8.40;99.90
41838;DHT22;27511;52.042;5.178;2024-02-23T07:15:44;8.50;99.90
41838;DHT22;27511;52.042;5.178;2024-02-23T07:18:10;8.40;99.90
41838;DHT22;27511;52.042;5.178;2024-02-23T07:20:36;8.40;99.90
41838;DHT22;27511;52.042;5.178;2024-02-23T07:23:02;8.20;99.90
41838;DHT22;27511;52.042;5.178;2024-02-23T07:25:28;8.40;99.90
41838;DHT22;27511;52.042;5.178;2024-02-23T07:27:53;8.20;99.90
41838;DHT22;27511;52.042;5.178;2024-02-23T07:30:19;8.30;99.90
41838;DHT22;27511;52.042;5.178;2024-02-23T07:32:45;8.50;99.90
41838;DHT22;27511;52.042;5.178;2024-02-23T07:35:12;8.40;99.90
41838;DHT22;27511;52.042;5.178;2024-02-23T07:37:38;8.30;99.90
41838;DHT22;27511;52.042;5.178;2024-02-23T07:40:04;8.30;99.90
41838;DHT22;27511;52.042;5.178;2024-02-23T07:42:33;8.30;99.90
41838;DHT22;27511;52.042;5.178;2024-02-23T07:45:02;8.60;99.90
41838;DHT22;27511;52.042;5.178;2024-02-23T07:47:30;8.60;99.90
41838;DHT22;27511;52.042;5.178;2024-02-23T07:49:55;8.50;99.90
41838;DHT22;27511;52.042;5.178;2024-02-23T07:52:21;8.20;99.90
41838;DHT22;27511;52.042;5.178;2024-02-23T07:54:49;8.40;99.90
41838;DHT22;27511;52.042;5.178;2024-02-23T07:57:17;8.60;99.90
41838;DHT22;27511;52.042;5.178;2024-02-23T07:59:43;8.60;99.90
41838;DHT22;27511;52.042;5.178;2024-02-23T08:02:08;8.60;99.90
41838;DHT22;27511;52.042;5.178;2024-02-23T08:04:34;8.80;99.90
41838;DHT22;27511;52.042;5.178;2024-02-23T08:06:59;8.70;99.90
41838;DHT22;27511;52.042;5.178;2024-02-23T08:09:25;8.80;99.90
41838;DHT22;27511;52.042;5.178;2024-02-23T08:11:51;8.60;99.90
41838;DHT22;27511;52.042;5.178;2024-02-23T08:14:16;8.50;99.90
41838;DHT22;27511;52.042;5.178;2024-02-23T08:16:42;8.50;99.90
41838;DHT22;27511;52.042;5.178;2024-02-23T08:19:08;8.50;99.90
41838;DHT22;27511;52.042;5.178;2024-02-23T08:21:33;8.60;99.90
41838;DHT22;27511;52.042;5.178;2024-02-23T08:23:59;8.70;99.90
41838;DHT22;27511;52.042;5.178;2024-02-23T08:26:24;8.70;99.90
41838;DHT22;27511;52.042;5.178;2024-02-23T08:28:50;8.80;99.90
41838;DHT22;27511;52.042;5.178;2024-02-23T08:31:16;8.40;99.90
41838;DHT22;27511;52.042;5.178;2024-02-23T08:33:42;8.40;99.90
41838;DHT22;27511;52.042;5.178;2024-02-23T08:36:08;8.20;99.90
41838;DHT22;27511;52.042;5.178;2024-02-23T08:38:33;8.30;99.90
41838;DHT22;27511;52.042;5.178;2024-02-23T08:40:59;8.40;99.90
41838;DHT22;27511;52.042;5.178;2024-02-23T08:43:24;8.20;99.90
41838;DHT22;27511;52.042;5.178;2024-02-23T08:45:50;8.40;99.90
41838;DHT22;27511;52.042;5.178;2024-02-23T08:48:16;8.10;99.90
41838;DHT22;27511;52.042;5.178;2024-02-23T08:50:43;8.30;99.90
41838;DHT22;27511;52.042;5.178;2024-02-23T08:53:09;8.50;99.90
41838;DHT22;27511;52.042;5.178;2024-02-23T08:55:34;8.70;99.90
41838;DHT22;27511;52.042;5.178;2024-02-23T08:58:00;8.60;99.90
41838;DHT22;27511;52.042;5.178;2024-02-23T09:00:25;8.50;99.90
41838;DHT22;27511;52.042;5.178;2024-02-23T09:02:51;8.50;99.90
41838;DHT22;27511;52.042;5.178;2024-02-23T09:05:17;8.60;99.90
41838;DHT22;27511;52.042;5.178;2024-02-23T09:07:43;8.40;99.90
41838;DHT22;27511;52.042;5.178;2024-02-23T09:10:08;8.50;99.90
41838;DHT22;27511;52.042;5.178;2024-02-23T09:12:34;8.60;99.90
41838;DHT22;27511;52.042;5.178;2024-02-23T09:15:00;8.60;99.90
41838;DHT22;27511;52.042;5.178;2024-02-23T09:17:28;8.60;99.90
41838;DHT22;27511;52.042;5.178;2024-02-23T09:19:53;8.70;99.90
41838;DHT22;27511;52.042;5.178;2024-02-23T09:22:19;8.70;99.90
41838;DHT22;27511;52.042;5.178;2024-02-23T09:24:44;9.00;99.90
41838;DHT22;27511;52.042;5.178;2024-02-23T09:27:10;8.80;99.90
41838;DHT22;27511;52.042;5.178;2024-02-23T09:29:36;8.60;99.90
41838;DHT22;27511;52.042;5.178;2024-02-23T09:32:02;8.60;99.90
41838;DHT22;27511;52.042;5.178;2024-02-23T09:34:28;8.50;99.90
41838;DHT22;27511;52.042;5.178;2024-02-23T09:36:54;8.50;99.90
41838;DHT22;27511;52.042;5.178;2024-02-23T09:39:20;8.50;99.90
41838;DHT22;27511;52.042;5.178;2024-02-23T09:41:50;8.40;99.90
41838;DHT22;27511;52.042;5.178;2024-02-23T09:44:15;8.30;99.90
41838;DHT22;27511;52.042;5.178;2024-02-23T09:46:43;8.20;1.00
41838;DHT22;27511;52.042;5.178;2024-02-23T09:49:11;8.30;1.00
41838;DHT22;27511;52.042;5.178;2024-02-23T09:51:39;8.50;99.90
41838;DHT22;27511;52.042;5.178;2024-02-23T09:54:05;8.40;99.90
41838;DHT22;27511;52.042;5.178;2024-02-23T09:56:30;8.60;99.90
41838;DHT22;27511;52.042;5.178;2024-02-23T09:59:00;8.80;99.90
41838;DHT22;27511;52.042;5.178;2024-02-23T10:01:32;8.80;99.90
41838;DHT22;27511;52.042;5.178;2024-02-23T10:04:00;9.00;99.90
41838;DHT22;27511;52.042;5.178;2024-02-23T10:06:26;9.10;99.90
41838;DHT22;27511;52.042;5.178;2024-02-23T10:08:52;8.80;99.90
41838;DHT22;27511;52.042;5.178;2024-02-23T10:11:20;8.90;99.90
41838;DHT22;27511;52.042;5.178;2024-02-23T10:13:48;9.00;99.90
41838;DHT22;27511;52.042;5.178;2024-02-23T10:16:18;9.10;99.90
41838;DHT22;27511;52.042;5.178;2024-02-23T10:18:48;9.00;99.90
41838;DHT22;27511;52.042;5.178;2024-02-23T10:21:15;9.00;99.90
41838;DHT22;27511;52.042;5.178;2024-02-23T10:23:41;9.20;99.90
41838;DHT22;27511;52.042;5.178;2024-02-23T10:26:07;9.20;99.90
41838;DHT22;27511;52.042;5.178;2024-02-23T10:28:35;9.10;99.90
41838;DHT22;27511;52.042;5.178;2024-02-23T10:31:04;9.20;99.90
41838;DHT22;27511;52.042;5.178;2024-02-23T10:33:31;9.20;99.90
41838;DHT22;27511;52.042;5.178;2024-02-23T10:35:57;9.20;99.90
41838;DHT22;27511;52.042;5.178;2024-02-23T10:38:23;9.10;99.90
41838;DHT22;27511;52.042;5.178;2024-02-23T10:40:50;8.90;99.90
41838;DHT22;27511;52.042;5.178;2024-02-23T10:43:20;8.90;99.90
41838;DHT22;27511;52.042;5.178;2024-02-23T10:45:46;8.90;99.90
41838;DHT22;27511;52.042;5.178;2024-02-23T10:48:13;9.10;99.90
41838;DHT22;27511;52.042;5.178;2024-02-23T10:50:40;9.40;99.90
41838;DHT22;27511;52.042;5.178;2024-02-23T10:53:09;9.40;99.90
41838;DHT22;27511;52.042;5.178;2024-02-23T10:55:37;9.40;99.90
41838;DHT22;27511;52.042;5.178;2024-02-23T10:58:06;9.50;99.90
41838;DHT22;27511;52.042;5.178;2024-02-23T11:00:34;9.40;99.90
41838;DHT22;27511;52.042;5.178;2024-02-23T11:03:00;9.40;99.90
41838;DHT22;27511;52.042;5.178;2024-02-23T11:05:27;9.40;99.90
41838;DHT22;27511;52.042;5.178;2024-02-23T11:07:56;9.30;99.90
41838;DHT22;27511;52.042;5.178;2024-02-23T11:10:22;9.40;99.90
41838;DHT22;27511;52.042;5.178;2024-02-23T11:13:00;9.50;99.90
41838;DHT22;27511;52.042;5.178;2024-02-23T11:15:27;9.70;99.90
41838;DHT22;27511;52.042;5.178;2024-02-23T11:17:53;9.70;99.90
41838;DHT22;27511;52.042;5.178;2024-02-23T11:20:20;9.70;99.90
41838;DHT22;27511;52.042;5.178;2024-02-23T11:22:52;9.90;99.90
41838;DHT22;27511;52.042;5.178;2024-02-23T11:25:19;9.80;99.90
41838;DHT22;27511;52.042;5.178;2024-02-23T11:27:49;9.70;99.90
41838;DHT22;27511;52.042;5.178;2024-02-23T11:30:17;9.70;99.90
41838;DHT22;27511;52.042;5.178;2024-02-23T11:32:43;9.70;99.90
41838;DHT22;27511;52.042;5.178;2024-02-23T11:35:15;9.80;99.90
41838;DHT22;27511;52.042;5.178;2024-02-23T11:38:07;9.80;99.90
41838;DHT22;27511;52.042;5.178;2024-02-23T11:40:33;10.00;99.90
41838;DHT22;27511;52.042;5.178;2024-02-23T11:43:00;10.10;99.90
41838;DHT22;27511;52.042;5.178;2024-02-23T11:45:28;9.90;99.90
41838;DHT22;27511;52.042;5.178;2024-02-23T11:47:56;10.10;99.90
41838;DHT22;27511;52.042;5.178;2024-02-23T11:50:22;10.00;99.90
41838;DHT22;27511;52.042;5.178;2024-02-23T11:52:48;9.60;99.90
41838;DHT22;27511;52.042;5.178;2024-02-23T11:55:19;9.60;99.90
41838;DHT22;27511;52.042;5.178;2024-02-23T11:57:47;9.50;99.90
41838;DHT22;27511;52.042;5.178;2024-02-23T12:00:13;9.70;99.90
41838;DHT22;27511;52.042;5.178;2024-02-23T12:02:39;9.70;99.90
41838;DHT22;27511;52.042;5.178;2024-02-23T12:05:05;9.80;99.90
41838;DHT22;27511;52.042;5.178;2024-02-23T12:07:31;9.80;99.90
41838;DHT22;27511;52.042;5.178;2024-02-23T12:09:57;9.80;99.90
41838;DHT22;27511;52.042;5.178;2024-02-23T12:12:27;9.80;99.90
41838;DHT22;27511;52.042;5.178;2024-02-23T12:14:53;9.70;99.90
41838;DHT22;27511;52.042;5.178;2024-02-23T12:17:18;9.80;99.90
41838;DHT22;27511;52.042;5.178;2024-02-23T12:19:44;9.90;99.90
41838;DHT22;27511;52.042;5.178;2024-02-23T12:22:13;9.90;99.90
41838;DHT22;27511;52.042;5.178;2024-02-23T12:24:40;10.00;99.90
41838;DHT22;27511;52.042;5.178;2024-02-23T12:27:07;10.00;99.90
41838;DHT22;27511;52.042;5.178;2024-02-23T12:29:32;10.00;99.90
41838;DHT22;27511;52.042;5.178;2024-02-23T12:32:05;10.20;99.90
41838;DHT22;27511;52.042;5.178;2024-02-23T12:34:31;10.20;99.90
41838;DHT22;27511;52.042;5.178;2024-02-23T12:36:57;10.20;99.90
41838;DHT22;27511;52.042;5.178;2024-02-23T12:39:22;10.20;99.90
41838;DHT22;27511;52.042;5.178;2024-02-23T12:41:48;10.50;99.90
41838;DHT22;27511;52.042;5.178;2024-02-23T12:44:14;10.60;99.90
41838;DHT22;27511;52.042;5.178;2024-02-23T12:46:40;10.70;99.90
41838;DHT22;27511;52.042;5.178;2024-02-23T12:49:05;10.70;99.90
41838;DHT22;27511;52.042;5.178;2024-02-23T12:51:31;10.40;99.90
41838;DHT22;27511;52.042;5.178;2024-02-23T12:53:56;10.60;99.90
41838;DHT22;27511;52.042;5.178;2024-02-23T12:56:22;10.60;99.90
41838;DHT22;27511;52.042;5.178;2024-02-23T12:58:48;10.80;99.90
41838;DHT22;27511;52.042;5.178;2024-02-23T13:01:13;10.70;99.90
41838;DHT22;27511;52.042;5.178;2024-02-23T13:03:40;10.70;99.90
41838;DHT22;27511;52.042;5.178;2024-02-23T13:06:06;10.70;99.90
41838;DHT22;27511;52.042;5.178;2024-02-23T13:08:32;10.70;99.90
41838;DHT22;27511;52.042;5.178;2024-02-23T13:10:58;10.70;99.90
41838;DHT22;27511;52.042;5.178;2024-02-23T13:13:24;10.70;99.90
41838;DHT22;27511;52.042;5.178;2024-02-23T13:15:51;10.70;99.90
41838;DHT22;27511;52.042;5.178;2024-02-23T13:18:17;10.70;99.90
41838;DHT22;27511;52.042;5.178;2024-02-23T13:20:44;10.60;99.90
41838;DHT22;27511;52.042;5.178;2024-02-23T13:23:11;10.60;99.90
41838;DHT22;27511;52.042;5.178;2024-02-23T13:25:39;10.80;99.90
41838;DHT22;27511;52.042;5.178;2024-02-23T13:28:06;10.80;99.90
41838;DHT22;27511;52.042;5.178;2024-02-23T13:30:32;10.80;99.90
41838;DHT22;27511;52.042;5.178;2024-02-23T13:32:58;11.00;99.90
41838;DHT22;27511;52.042;5.178;2024-02-23T13:35:24;10.90;99.90
41838;DHT22;27511;52.042;5.178;2024-02-23T13:37:50;10.80;99.90
41838;DHT22;27511;52.042;5.178;2024-02-23T13:40:16;10.90;99.90
41838;DHT22;27511;52.042;5.178;2024-02-23T13:42:42;10.60;99.90
41838;DHT22;27511;52.042;5.178;2024-02-23T13:45:11;10.70;99.90
41838;DHT22;27511;52.042;5.178;2024-02-23T13:47:39;10.70;99.90
41838;DHT22;27511;52.042;5.178;2024-02-23T13:50:05;10.70;99.90
41838;DHT22;27511;52.042;5.178;2024-02-23T13:52:31;10.90;99.90
41838;DHT22;27511;52.042;5.178;2024-02-23T13:54:57;10.90;99.90
41838;DHT22;27511;52.042;5.178;2024-02-23T13:57:23;11.10;99.90
41838;DHT22;27511;52.042;5.178;2024-02-23T13:59:48;11.40;99.90
41838;DHT22;27511;52.042;5.178;2024-02-23T14:02:14;11.70;99.90
41838;DHT22;27511;52.042;5.178;2024-02-23T14:04:40;12.10;99.90
41838;DHT22;27511;52.042;5.178;2024-02-23T14:07:07;12.50;99.90
41838;DHT22;27511;52.042;5.178;2024-02-23T14:09:32;12.60;99.90
41838;DHT22;27511;52.042;5.178;2024-02-23T14:11:58;12.30;99.90
41838;DHT22;27511;52.042;5.178;2024-02-23T14:14:24;12.30;99.90
41838;DHT22;27511;52.042;5.178;2024-02-23T14:16:50;12.00;99.90
41838;DHT22;27511;52.042;5.178;2024-02-23T14:19:15;11.70;99.90
41838;DHT22;27511;52.042;5.178;2024-02-23T14:21:41;11.50;99.90
41838;DHT22;27511;52.042;5.178;2024-02-23T14:24:06;11.70;99.90
41838;DHT22;27511;52.042;5.178;2024-02-23T14:26:32;11.50;99.90
41838;DHT22;27511;52.042;5.178;2024-02-23T14:28:58;11.70;99.90
41838;DHT22;27511;52.042;5.178;2024-02-23T14:31:24;11.90;99.90
41838;DHT22;27511;52.042;5.178;2024-02-23T14:33:51;11.80;99.90
41838;DHT22;27511;52.042;5.178;2024-02-23T14:36:17;11.90;99.90
41838;DHT22;27511;52.042;5.178;2024-02-23T14:38:43;11.80;99.90
41838;DHT22;27511;52.042;5.178;2024-02-23T14:41:09;11.50;99.90
41838;DHT22;27511;52.042;5.178;2024-02-23T14:43:35;11.50;99.90
41838;DHT22;27511;52.042;5.178;2024-02-23T14:46:01;11.30;99.90
41838;DHT22;27511;52.042;5.178;2024-02-23T14:48:27;11.40;99.90
41838;DHT22;27511;52.042;5.178;2024-02-23T14:50:52;11.50;99.90
41838;DHT22;27511;52.042;5.178;2024-02-23T14:53:18;11.50;99.90
41838;DHT22;27511;52.042;5.178;2024-02-23T14:55:44;11.60;99.90
41838;DHT22;27511;52.042;5.178;2024-02-23T14:58:10;11.60;99.90
41838;DHT22;27511;52.042;5.178;2024-02-23T15:00:35;11.50;99.90
41838;DHT22;27511;52.042;5.178;2024-02-23T15:03:03;11.30;99.90
41838;DHT22;27511;52.042;5.178;2024-02-23T15:05:28;11.50;99.90
41838;DHT22;27511;52.042;5.178;2024-02-23T15:07:55;11.60;99.90
41838;DHT22;27511;52.042;5.178;2024-02-23T15:10:23;11.50;99.90
41838;DHT22;27511;52.042;5.178;2024-02-23T15:12:48;11.50;99.90
41838;DHT22;27511;52.042;5.178;2024-02-23T15:15:14;11.40;99.90
41838;DHT22;27511;52.042;5.178;2024-02-23T15:17:39;11.20;99.90
41838;DHT22;27511;52.042;5.178;2024-02-23T15:20:08;11.30;99.90
41838;DHT22;27511;52.042;5.178;2024-02-23T15:22:34;11.20;99.90
41838;DHT22;27511;52.042;5.178;2024-02-23T15:24:59;11.30;99.90
41838;DHT22;27511;52.042;5.178;2024-02-23T15:27:25;11.50;99.90
41838;DHT22;27511;52.042;5.178;2024-02-23T15:29:51;11.50;99.90
41838;DHT22;27511;52.042;5.178;2024-02-23T15:32:17;11.60;99.90
41838;DHT22;27511;52.042;5.178;2024-02-23T15:34:43;11.70;99.90
41838;DHT22;27511;52.042;5.178;2024-02-23T15:37:08;11.80;99.90
41838;DHT22;27511;52.042;5.178;2024-02-23T15:39:34;12.00;99.90
41838;DHT22;27511;52.042;5.178;2024-02-23T15:41:59;12.00;99.90